Time;durP1;ratioP1;P1;durP2;ratioP2;P2;SDS_P1;SDS_P2;PMS_P1;PMS_P2;Temp;Humidity;BMP_temperature;BMP_pressure;BME280_temperature;BME280_humidity;BME280_pressure;Samples;Min_cycle;Max_cycle;Signal;HPM_P1;HPM_P2
2022/01/21 00:01:18;;;;;;;6.57;2.00;;;;;;;-1.24;77.04;101834.03;5025358;28;20052;-24
2022/01/21 00:03:44;;;;;;;6.43;1.63;;;;;;;-1.25;77.48;101838.28;5025552;28;20044;-25
2022/01/21 00:06:11;;;;;;;4.60;2.00;;;;;;;-1.26;76.84;101851.13;5020825;28;20013;-25
2022/01/21 00:08:38;;;;;;;5.85;2.00;;;;;;;-1.27;77.57;101850.25;5024129;28;20196;-24
2022/01/21 00:11:04;;;;;;;4.53;2.88;;;;;;;-1.30;77.42;101844.91;5025109;28;20052;-24
2022/01/21 00:13:34;;;;;;;4.10;1.73;;;;;;;-1.32;77.49;101836.16;5022731;28;20030;-24
2022/01/21 00:16:03;;;;;;;6.68;2.80;;;;;;;-1.34;77.35;101848.09;5022768;28;20024;-25
2022/01/21 00:18:29;;;;;;;3.58;1.63;;;;;;;-1.36;76.64;101844.53;5023450;28;20484;-24
2022/01/21 00:31:50;;;;;;;3.92;1.65;;;;;;;-1.47;76.63;101841.31;5027544;28;20095;-22
2022/01/21 00:34:16;;;;;;;5.13;1.83;;;;;;;-1.49;76.25;101843.81;5024972;28;20025;-23
2022/01/21 00:36:41;;;;;;;6.95;2.08;;;;;;;-1.49;75.99;101849.00;5022899;28;20501;-22
2022/01/21 00:39:07;;;;;;;6.68;2.13;;;;;;;-1.50;75.96;101854.94;5020465;28;20108;-22
2022/01/21 00:41:38;;;;;;;7.05;2.80;;;;;;;-1.54;76.29;101855.56;5023037;28;20295;-22
2022/01/21 00:44:04;;;;;;;2.45;1.40;;;;;;;-1.56;76.37;101855.47;5025445;28;20034;-24
2022/01/21 00:46:30;;;;;;;5.60;2.05;;;;;;;-1.56;76.67;101854.59;5024661;28;20260;-24
2022/01/21 00:48:55;;;;;;;4.32;1.95;;;;;;;-1.57;77.05;101864.06;5024104;28;20032;-24
2022/01/21 00:51:21;;;;;;;3.58;1.52;;;;;;;-1.58;76.47;101859.69;5024214;28;20033;-24
2022/01/21 00:53:46;;;;;;;2.85;1.60;;;;;;;-1.59;76.79;101867.34;5023468;28;20064;-24
2022/01/21 00:56:12;;;;;;;4.68;1.90;;;;;;;-1.62;76.14;101868.06;5021601;28;20314;-24
2022/01/21 00:58:38;;;;;;;3.00;1.27;;;;;;;-1.63;76.50;101874.06;5023807;28;20035;-24
2022/01/21 01:01:03;;;;;;;2.28;1.33;;;;;;;-1.63;76.69;101880.91;5027016;28;20195;-24
2022/01/21 01:03:29;;;;;;;4.70;1.92;;;;;;;-1.64;76.38;101884.31;5024642;28;20081;-24
2022/01/21 01:05:56;;;;;;;7.13;1.90;;;;;;;-1.66;76.58;101884.22;5025095;28;20053;-25
2022/01/21 01:08:22;;;;;;;4.05;1.70;;;;;;;-1.67;76.77;101892.75;5023380;28;20036;-24
2022/01/21 01:11:13;;;;;;;4.05;2.35;;;;;;;-1.69;75.63;101892.69;5023887;28;20398;-24
2022/01/21 01:21:37;;;;;;;8.10;2.08;;;;;;;-1.74;76.08;101907.00;5024805;28;20050;-24
2022/01/21 01:29:14;;;;;;;8.38;1.60;;;;;;;-1.77;76.41;101917.16;5023414;28;20531;-24
2022/01/21 01:31:40;;;;;;;4.22;1.63;;;;;;;-1.78;76.74;101907.63;5022477;28;20022;-24
2022/01/21 01:34:06;;;;;;;4.97;1.45;;;;;;;-1.78;76.39;101907.63;5022457;28;20029;-24
2022/01/21 01:36:31;;;;;;;4.38;1.50;;;;;;;-1.79;76.91;101907.53;5022655;28;20460;-24
2022/01/21 01:41:31;;;;;;;1.83;1.65;;;;;;;-1.81;76.52;101912.59;5023805;28;20544;-25
2022/01/21 01:49:34;;;;;;;4.40;1.85;;;;;;;-1.83;76.41;101909.03;5023978;28;20059;-24
2022/01/21 01:52:01;;;;;;;6.18;2.67;;;;;;;-1.85;76.64;101905.47;5024466;28;20021;-24
2022/01/21 01:54:28;;;;;;;7.57;2.53;;;;;;;-1.85;76.57;101908.03;5024811;28;20385;-24
2022/01/21 01:56:56;;;;;;;2.95;1.60;;;;;;;-1.87;76.38;101907.94;5023106;28;20083;-24
2022/01/21 01:59:23;;;;;;;3.85;1.67;;;;;;;-1.89;76.40;101894.03;5022614;28;20048;-24
2022/01/21 02:01:59;;;;;;;5.13;1.63;;;;;;;-1.88;77.07;101894.91;5025006;28;20385;-24
2022/01/21 02:04:25;;;;;;;4.38;1.92;;;;;;;-1.89;76.95;101898.31;5025008;28;20033;-24
2022/01/21 02:06:51;;;;;;;4.38;1.63;;;;;;;-1.89;76.79;101900.91;5023984;28;20030;-24
2022/01/21 02:09:17;;;;;;;1.65;1.52;;;;;;;-1.89;76.76;101908.66;5027266;28;20394;-24
2022/01/21 02:11:43;;;;;;;2.08;1.20;;;;;;;-1.91;77.01;101894.75;5028412;28;20017;-24
2022/01/21 02:14:13;;;;;;;4.10;1.70;;;;;;;-1.92;76.73;101887.78;5028017;28;20036;-24
2022/01/21 02:22:15;;;;;;;4.80;1.67;;;;;;;-1.95;77.16;101875.53;5024284;28;20038;-25
2022/01/21 02:24:54;;;;;;;2.63;1.50;;;;;;;-1.98;77.04;101889.19;5025089;28;20084;-24
2022/01/21 02:27:20;;;;;;;5.43;2.45;;;;;;;-1.98;77.31;101876.25;5027508;28;20461;-24
2022/01/21 02:29:54;;;;;;;3.42;1.50;;;;;;;-1.98;77.47;101876.25;5027163;28;20069;-24
2022/01/21 02:32:21;;;;;;;5.22;1.85;;;;;;;-1.99;77.09;101871.91;5028358;28;20862;-24
2022/01/21 02:34:47;;;;;;;6.68;2.20;;;;;;;-1.99;77.01;101876.16;5028158;28;20029;-25
2022/01/21 02:37:16;;;;;;;5.70;1.92;;;;;;;-2.01;77.22;101883.81;5028536;28;20540;-24
2022/01/21 02:39:42;;;;;;;5.75;1.65;;;;;;;-2.02;76.95;101897.56;5028180;28;20541;-24
2022/01/21 02:42:08;;;;;;;4.05;2.15;;;;;;;-2.04;76.89;101888.78;5025472;28;20094;-24
2022/01/21 02:44:34;;;;;;;4.05;1.75;;;;;;;-2.03;76.56;101900.94;5027956;28;20104;-24
2022/01/21 02:47:02;;;;;;;4.55;1.77;;;;;;;-2.05;76.59;101899.94;5029220;28;20033;-24
2022/01/21 02:49:28;;;;;;;2.33;1.67;;;;;;;-2.06;76.73;101896.47;5026614;28;20022;-24
2022/01/21 02:51:55;;;;;;;3.22;1.92;;;;;;;-2.04;76.89;101899.13;5025154;28;20040;-24
2022/01/21 02:54:21;;;;;;;6.07;1.67;;;;;;;-2.07;76.83;101899.84;5023342;28;20686;-24
2022/01/21 02:56:48;;;;;;;2.70;1.85;;;;;;;-2.08;76.95;101905.81;5028421;28;20033;-24
2022/01/21 02:59:13;;;;;;;6.25;1.90;;;;;;;-2.07;77.31;101905.03;5025053;28;20044;-24
2022/01/21 03:01:41;;;;;;;3.70;2.13;;;;;;;-2.07;77.00;101910.19;5027700;28;20021;-24
2022/01/21 03:04:09;;;;;;;3.00;1.50;;;;;;;-2.08;76.51;101917.84;5028136;28;20026;-24
2022/01/21 03:06:37;;;;;;;3.58;2.03;;;;;;;-2.09;76.89;101921.25;5028245;28;20374;-24
2022/01/21 03:09:05;;;;;;;3.67;1.30;;;;;;;-2.10;76.57;101924.63;5028179;28;20026;-25
2022/01/21 03:11:31;;;;;;;5.03;1.60;;;;;;;-2.10;76.24;101920.34;5027110;28;20033;-24
2022/01/21 03:13:56;;;;;;;6.13;1.90;;;;;;;-2.11;76.90;101933.16;5025595;28;20069;-24
2022/01/21 03:16:23;;;;;;;1.95;1.63;;;;;;;-2.11;76.38;101925.41;5028430;28;20123;-24
2022/01/21 03:18:48;;;;;;;2.90;1.77;;;;;;;-2.14;76.66;101918.34;5027268;28;20033;-24
2022/01/21 03:21:17;;;;;;;7.65;1.52;;;;;;;-2.17;76.41;101922.44;5024928;28;20120;-24
2022/01/21 03:23:48;;;;;;;4.05;1.83;;;;;;;-2.14;76.68;101928.69;5024651;28;20021;-24
2022/01/21 03:26:19;;;;;;;3.17;2.10;;;;;;;-2.16;76.36;101921.66;5027707;28;20025;-24
2022/01/21 03:28:48;;;;;;;3.67;1.40;;;;;;;-2.19;76.49;101918.06;5027933;28;20040;-24
2022/01/21 03:31:14;;;;;;;5.80;2.50;;;;;;;-2.21;75.95;101922.25;5023546;28;20060;-24
2022/01/21 03:33:39;;;;;;;2.20;1.40;;;;;;;-2.21;76.55;101922.25;5027264;28;20052;-24
2022/01/21 03:36:06;;;;;;;4.95;1.70;;;;;;;-2.23;76.32;101931.59;5028171;28;20033;-24
2022/01/21 03:38:32;;;;;;;5.35;1.65;;;;;;;-2.22;76.04;101935.06;5026006;28;20021;-24
2022/01/21 03:40:57;;;;;;;4.10;1.58;;;;;;;-2.24;76.76;101927.22;5027577;28;20562;-22
2022/01/21 03:43:24;;;;;;;6.22;1.50;;;;;;;-2.25;76.08;101929.69;5026301;28;20112;-22
2022/01/21 03:45:50;;;;;;;2.88;1.58;;;;;;;-2.27;76.83;101931.31;5025094;28;20048;-25
2022/01/21 03:48:16;;;;;;;5.07;2.22;;;;;;;-2.28;75.97;101927.81;5026519;28;20029;-22
2022/01/21 03:50:43;;;;;;;5.20;1.52;;;;;;;-2.29;76.70;101940.66;5025340;28;20025;-22
2022/01/21 03:53:09;;;;;;;2.80;1.40;;;;;;;-2.31;76.14;101935.38;5027579;28;20170;-24
2022/01/21 03:55:35;;;;;;;8.88;1.73;;;;;;;-2.33;76.48;101936.97;5028346;28;20056;-22
2022/01/21 03:58:03;;;;;;;2.50;1.30;;;;;;;-2.35;76.37;101928.22;5023707;28;20033;-24
2022/01/21 04:00:31;;;;;;;4.13;1.38;;;;;;;-2.36;75.68;101931.63;5019583;28;20489;-22
2022/01/21 04:02:57;;;;;;;2.58;1.48;;;;;;;-2.38;76.18;101928.03;5025553;28;20440;-22
2022/01/21 04:05:24;;;;;;;2.65;1.60;;;;;;;-2.40;75.93;101927.03;5026898;28;20025;-24
2022/01/21 04:07:50;;;;;;;4.95;1.70;;;;;;;-2.42;75.34;101931.22;5024727;28;20033;-22
2022/01/21 04:10:15;;;;;;;4.13;1.40;;;;;;;-2.43;75.62;101934.59;5023690;28;20029;-22
2022/01/21 04:12:41;;;;;;;3.83;1.50;;;;;;;-2.45;76.00;101926.75;5024854;28;20044;-22
2022/01/21 04:15:07;;;;;;;3.15;1.65;;;;;;;-2.46;75.92;101925.84;5027496;28;20076;-24
2022/01/21 04:17:33;;;;;;;5.75;1.80;;;;;;;-2.49;75.70;101925.66;5027974;28;20052;-22
2022/01/21 04:19:58;;;;;;;3.13;1.23;;;;;;;-2.49;75.99;101937.69;5028187;28;20505;-22
2022/01/21 04:22:24;;;;;;;5.13;1.48;;;;;;;-2.49;75.68;101950.59;5028732;28;20422;-22
2022/01/21 04:24:50;;;;;;;5.53;1.50;;;;;;;-2.51;76.12;101947.91;5027831;28;20019;-22
2022/01/21 04:27:17;;;;;;;2.55;1.10;;;;;;;-2.52;75.46;101940.97;5023958;28;20032;-22
2022/01/21 04:29:44;;;;;;;4.68;1.60;;;;;;;-2.54;76.02;101941.66;5027884;28;20485;-22
2022/01/21 04:32:10;;;;;;;1.77;1.17;;;;;;;-2.54;75.64;101944.25;5027667;28;20132;-24
2022/01/21 04:34:36;;;;;;;3.88;1.50;;;;;;;-2.54;75.77;101939.09;5026749;28;20504;-25
2022/01/21 04:37:06;;;;;;;3.13;1.42;;;;;;;-2.55;76.34;101945.00;5027846;28;20065;-22
2022/01/21 04:39:37;;;;;;;7.55;1.73;;;;;;;-2.55;76.22;101935.59;5025197;28;20021;-22
2022/01/21 04:47:30;;;;;;;1.92;1.55;;;;;;;-2.56;77.14;101938.97;5024908;28;20061;-24
2022/01/21 04:49:57;;;;;;;1.50;0.90;;;;;;;-2.57;76.97;101939.75;5023415;28;20112;-22
2022/01/21 04:52:23;;;;;;;5.05;1.52;;;;;;;-2.58;76.88;101938.88;5023559;28;20044;-24
2022/01/21 04:54:50;;;;;;;1.83;1.13;;;;;;;-2.59;76.86;101937.09;5025136;28;20022;-24
2022/01/21 04:57:15;;;;;;;2.60;1.52;;;;;;;-2.59;76.46;101938.78;5025766;28;20029;-22
2022/01/21 04:59:42;;;;;;;4.03;1.33;;;;;;;-2.60;76.76;101937.00;5026033;28;20103;-22
2022/01/21 05:02:08;;;;;;;2.95;1.20;;;;;;;-2.61;76.46;101945.50;5005993;28;20052;-22
2022/01/21 05:04:33;;;;;;;2.42;1.00;;;;;;;-2.62;76.91;101948.91;5024440;28;20025;-22
2022/01/21 05:07:02;;;;;;;1.92;1.13;;;;;;;-2.64;76.84;101956.53;5025284;28;20029;-22
2022/01/21 05:09:32;;;;;;;6.75;1.63;;;;;;;-2.63;76.63;101957.44;5025347;28;20432;-22
2022/01/21 05:11:59;;;;;;;5.97;1.33;;;;;;;-2.66;76.97;101946.91;5021782;28;20029;-23
2022/01/21 05:14:41;;;;;;;3.47;1.10;;;;;;;-2.66;77.02;101954.66;5023307;28;20511;-22
2022/01/21 05:17:09;;;;;;;1.33;1.15;;;;;;;-2.67;76.84;101952.88;5022637;28;20279;-22
2022/01/21 05:19:35;;;;;;;2.55;1.08;;;;;;;-2.69;76.97;101941.53;5023768;28;20084;-22
2022/01/21 05:22:01;;;;;;;2.03;0.98;;;;;;;-2.71;76.90;101944.91;5024125;28;20022;-22
2022/01/21 05:24:27;;;;;;;2.53;1.20;;;;;;;-2.71;77.19;101952.66;5026425;28;20021;-22
2022/01/21 05:26:53;;;;;;;2.13;1.23;;;;;;;-2.73;76.95;101943.91;5023973;28;20028;-22
2022/01/21 05:29:22;;;;;;;3.13;1.10;;;;;;;-2.74;76.90;101952.47;5025157;28;20088;-22
2022/01/21 05:31:48;;;;;;;1.83;1.13;;;;;;;-2.78;76.52;101955.63;5023982;28;20044;-22
2022/01/21 05:34:13;;;;;;;2.50;1.60;;;;;;;-2.79;76.71;101951.28;5025775;28;20029;-22
2022/01/21 05:36:40;;;;;;;5.47;1.25;;;;;;;-2.81;76.12;101941.63;5024361;28;20037;-22
2022/01/21 05:39:10;;;;;;;2.28;1.05;;;;;;;-2.83;76.42;101938.97;5024992;28;20036;-25
2022/01/21 05:41:36;;;;;;;1.65;1.23;;;;;;;-2.84;76.27;101931.97;5024232;28;20033;-22
2022/01/21 05:44:07;;;;;;;2.00;1.38;;;;;;;-2.87;76.42;101926.63;5024848;28;20067;-22
2022/01/21 05:49:17;;;;;;;2.55;1.08;;;;;;;-2.87;76.30;101924.94;5025842;28;20103;-22
2022/01/21 05:51:43;;;;;;;4.47;1.45;;;;;;;-2.86;76.78;101923.25;5025257;28;20473;-22
2022/01/21 05:54:09;;;;;;;3.90;1.10;;;;;;;-2.87;76.93;101911.16;5024827;28;20112;-22
2022/01/21 05:56:36;;;;;;;4.88;1.40;;;;;;;-2.89;76.73;101913.63;5026223;28;20037;-22
2022/01/21 05:59:01;;;;;;;4.43;1.27;;;;;;;-2.89;76.77;101904.97;5027273;28;20048;-22
2022/01/21 06:01:27;;;;;;;6.15;1.63;;;;;;;-2.89;76.66;101912.72;5023704;28;20621;-22
2022/01/21 06:03:54;;;;;;;5.70;1.85;;;;;;;-2.90;76.86;101904.06;5019606;28;20063;-22
2022/01/21 06:06:19;;;;;;;5.18;1.50;;;;;;;-2.91;76.47;101909.13;5022029;28;20075;-22
2022/01/21 06:08:45;;;;;;;4.53;1.60;;;;;;;-2.91;76.72;101909.13;5022874;28;20029;-22
2022/01/21 06:11:10;;;;;;;3.65;1.38;;;;;;;-2.91;76.94;101906.53;5022309;28;20061;-22
2022/01/21 06:13:37;;;;;;;3.78;1.83;;;;;;;-2.91;77.21;101909.13;5024949;28;20025;-22
2022/01/21 06:16:03;;;;;;;3.22;1.88;;;;;;;-2.93;76.76;101903.88;5023135;28;20034;-22
2022/01/21 06:18:29;;;;;;;3.97;1.90;;;;;;;-2.92;76.87;101912.50;5025629;28;20030;-22
2022/01/21 06:20:54;;;;;;;7.00;2.13;;;;;;;-2.92;77.44;101912.50;5022946;28;20053;-22
2022/01/21 06:23:20;;;;;;;3.80;1.55;;;;;;;-2.90;77.04;101921.25;5022884;28;20060;-22
2022/01/21 06:25:45;;;;;;;6.13;2.17;;;;;;;-2.92;77.33;101908.25;5025671;28;20071;-22
2022/01/21 06:28:11;;;;;;;4.38;2.38;;;;;;;-2.92;77.13;101900.50;5023874;28;20025;-22
2022/01/21 06:30:38;;;;;;;6.90;2.95;;;;;;;-2.92;77.07;101902.19;5023062;28;20033;-22
2022/01/21 06:33:03;;;;;;;6.75;2.45;;;;;;;-2.92;77.57;101907.34;5024375;28;20044;-22
2022/01/21 06:35:29;;;;;;;6.93;2.22;;;;;;;-2.91;77.48;101909.13;5022511;28;20022;-22
2022/01/21 06:37:54;;;;;;;4.60;2.10;;;;;;;-2.91;77.38;101906.53;5021157;28;20520;-22
2022/01/21 06:40:20;;;;;;;5.18;2.30;;;;;;;-2.92;77.44;101905.66;5021979;28;20029;-22
2022/01/21 06:42:49;;;;;;;3.05;1.90;;;;;;;-2.91;77.60;101909.13;5020344;28;20050;-22
2022/01/21 06:45:15;;;;;;;5.60;2.33;;;;;;;-2.91;77.41;101915.19;5025025;28;20022;-22
2022/01/21 06:47:41;;;;;;;3.85;2.42;;;;;;;-2.91;77.80;101909.13;5022045;28;20056;-22
2022/01/21 06:50:07;;;;;;;3.88;2.22;;;;;;;-2.90;77.66;101911.81;5025132;28;20060;-23
2022/01/21 06:52:33;;;;;;;5.38;2.38;;;;;;;-2.89;78.05;101904.97;5022646;28;20022;-22
2022/01/21 06:54:59;;;;;;;4.32;2.03;;;;;;;-2.90;78.00;101906.66;5024639;28;20025;-22
2022/01/21 06:57:25;;;;;;;6.95;2.25;;;;;;;-2.88;77.65;101907.66;5024400;28;20106;-22
2022/01/21 06:59:51;;;;;;;8.05;2.45;;;;;;;-2.88;77.88;101915.41;5026618;28;20071;-22
2022/01/21 07:02:19;;;;;;;6.93;2.15;;;;;;;-2.86;77.70;101925.84;5023872;28;20411;-22
2022/01/21 07:04:48;;;;;;;7.10;2.55;;;;;;;-2.86;77.99;101928.41;5024894;28;20033;-23
2022/01/21 07:07:14;;;;;;;4.28;2.78;;;;;;;-2.85;77.69;101927.63;5024521;28;20029;-22
2022/01/21 07:09:40;;;;;;;5.63;2.78;;;;;;;-2.84;77.70;101939.72;5024897;28;20446;-22
2022/01/21 07:12:06;;;;;;;4.10;2.42;;;;;;;-2.83;78.08;101938.97;5024311;28;20025;-23
2022/01/21 07:14:32;;;;;;;7.78;2.58;;;;;;;-2.83;77.94;101934.66;5027583;28;20052;-22
2022/01/21 07:16:58;;;;;;;5.50;2.40;;;;;;;-2.81;77.92;101937.34;5022378;28;20505;-22
2022/01/21 07:19:23;;;;;;;4.40;3.50;;;;;;;-2.78;78.39;101927.22;5026638;28;20032;-22
2022/01/21 07:21:49;;;;;;;6.35;3.75;;;;;;;-2.77;78.34;101920.38;5026176;28;20025;-22
2022/01/21 07:24:15;;;;;;;5.95;3.10;;;;;;;-2.75;78.04;101932.59;5022594;28;20091;-22
2022/01/21 07:26:40;;;;;;;8.45;2.97;;;;;;;-2.74;78.42;101918.88;5024922;28;20033;-22
2022/01/21 07:29:06;;;;;;;8.88;3.13;;;;;;;-2.72;78.41;101912.16;5020680;28;20132;-22
2022/01/21 07:31:31;;;;;;;7.25;2.88;;;;;;;-2.70;78.89;101914.84;5021998;28;20025;-22
2022/01/21 07:33:58;;;;;;;8.48;3.25;;;;;;;-2.67;78.53;101906.38;5024425;28;20033;-22
2022/01/21 07:36:24;;;;;;;4.03;2.90;;;;;;;-2.66;78.58;101910.75;5023348;28;20117;-22
2022/01/21 07:38:50;;;;;;;8.40;2.80;;;;;;;-2.66;78.56;101903.00;5021065;28;20435;-22
2022/01/21 07:41:15;;;;;;;6.30;3.05;;;;;;;-2.63;79.29;101892.88;5024303;28;20021;-22
2022/01/21 07:43:40;;;;;;;5.00;2.97;;;;;;;-2.60;79.16;101900.81;5023304;28;20021;-22
2022/01/21 07:46:06;;;;;;;7.50;3.20;;;;;;;-2.58;79.22;101901.78;5023560;28;20129;-22
2022/01/21 07:48:31;;;;;;;7.85;2.90;;;;;;;-2.55;79.16;101899.41;5022683;28;20033;-22
2022/01/21 07:50:57;;;;;;;12.68;3.70;;;;;;;-2.52;79.87;101893.56;5020253;28;20034;-22
2022/01/21 07:53:22;;;;;;;6.43;2.63;;;;;;;-2.49;79.69;101878.25;5021429;28;20056;-22
2022/01/21 07:55:50;;;;;;;7.90;3.17;;;;;;;-2.45;79.61;101886.31;5021052;28;20084;-23
2022/01/21 07:58:17;;;;;;;6.57;3.13;;;;;;;-2.38;80.52;101891.84;5022434;28;20030;-23
2022/01/21 08:00:43;;;;;;;6.32;3.22;;;;;;;-2.37;80.17;101899.69;5023188;28;20033;-22
2022/01/21 08:03:08;;;;;;;10.10;3.30;;;;;;;-2.33;80.55;101896.50;5019743;28;20026;-22
2022/01/21 08:05:34;;;;;;;7.40;3.72;;;;;;;-2.32;80.69;101900.00;5004419;28;20080;-22
2022/01/21 08:08:01;;;;;;;9.02;3.40;;;;;;;-2.29;81.00;101902.78;5019431;28;20021;-22
2022/01/21 08:10:26;;;;;;;10.25;3.63;;;;;;;-2.26;80.50;101905.56;5022117;28;20026;-22
2022/01/21 08:12:52;;;;;;;10.15;3.25;;;;;;;-2.22;80.81;101910.13;5021285;28;20109;-22
2022/01/21 08:15:17;;;;;;;10.35;3.28;;;;;;;-2.17;81.06;101901.78;5021070;28;20026;-23
2022/01/21 08:17:43;;;;;;;7.22;3.10;;;;;;;-2.14;81.49;101900.25;5021040;28;20109;-22
2022/01/21 08:20:09;;;;;;;8.55;3.00;;;;;;;-2.08;81.35;101899.75;5020606;28;20027;-22
2022/01/21 08:22:34;;;;;;;9.90;4.43;;;;;;;-2.05;81.78;101902.53;5019301;28;20033;-22
2022/01/21 08:25:00;;;;;;;5.75;3.47;;;;;;;-2.01;81.31;101899.34;5025596;28;20013;-22
2022/01/21 08:27:25;;;;;;;8.48;3.72;;;;;;;-1.93;82.18;101894.66;5018560;28;20478;-22
2022/01/21 08:29:51;;;;;;;5.40;3.92;;;;;;;-1.91;81.68;101894.75;5021097;28;20029;-22
2022/01/21 08:32:18;;;;;;;8.00;3.75;;;;;;;-1.86;81.23;101895.91;5021876;28;20029;-22
2022/01/21 08:34:43;;;;;;;6.50;3.22;;;;;;;-1.82;81.44;101890.13;5022563;28;20029;-22
2022/01/21 08:37:09;;;;;;;8.48;3.20;;;;;;;-1.77;81.26;101893.88;5021935;28;20378;-22
2022/01/21 08:39:35;;;;;;;6.70;3.40;;;;;;;-1.74;82.06;101888.91;5019111;28;20032;-22
2022/01/21 08:42:02;;;;;;;9.82;4.68;;;;;;;-1.69;82.11;101892.69;5020683;28;20099;-22
2022/01/21 08:44:28;;;;;;;7.93;3.63;;;;;;;-1.66;81.21;101885.91;5016955;28;20454;-22
2022/01/21 08:46:53;;;;;;;8.90;3.22;;;;;;;-1.60;81.70;101878.50;5016602;28;20034;-23
2022/01/21 08:49:20;;;;;;;8.90;3.90;;;;;;;-1.57;81.98;101889.94;5019114;28;20024;-22
2022/01/21 08:51:55;;;;;;;10.00;4.00;;;;;;;-1.50;82.11;101890.31;5016061;28;20025;-22
2022/01/21 08:54:21;;;;;;;6.35;2.92;;;;;;;-1.47;81.96;101888.78;5020816;28;20022;-22
2022/01/21 08:56:48;;;;;;;8.32;3.80;;;;;;;-1.44;82.18;101899.31;5021993;28;20086;-22
2022/01/21 08:59:14;;;;;;;9.07;3.58;;;;;;;-1.39;81.66;101899.59;5022057;28;20707;-23
2022/01/21 09:01:40;;;;;;;7.65;3.63;;;;;;;-1.37;81.23;101891.94;5020357;28;20469;-22
2022/01/21 09:04:06;;;;;;;10.73;3.83;;;;;;;-1.33;81.15;101896.50;5023612;28;20033;-22
2022/01/21 09:06:31;;;;;;;11.45;4.00;;;;;;;-1.29;81.48;101901.03;5019349;28;20565;-22
2022/01/21 09:08:57;;;;;;;8.23;4.15;;;;;;;-1.26;81.03;101901.25;5021281;28;20076;-23
2022/01/21 09:11:23;;;;;;;8.05;3.55;;;;;;;-1.22;80.79;101910.97;5020856;28;20049;-23
2022/01/21 09:13:49;;;;;;;7.95;3.53;;;;;;;-1.21;80.38;101907.56;5019246;28;20036;-22
2022/01/21 09:16:16;;;;;;;10.57;4.00;;;;;;;-1.10;81.24;101917.69;5021288;28;20116;-22
2022/01/21 09:18:54;;;;;;;8.93;3.30;;;;;;;-1.09;81.42;101922.03;5018039;28;20029;-22
2022/01/21 09:21:23;;;;;;;11.65;3.70;;;;;;;-1.04;82.22;101925.78;5020305;28;20392;-22
2022/01/21 09:23:49;;;;;;;8.10;2.97;;;;;;;-0.98;82.53;101927.84;5019711;28;20028;-22
2022/01/21 09:26:20;;;;;;;6.63;2.90;;;;;;;-0.91;83.10;101928.31;5025103;28;20022;-22
2022/01/21 09:28:46;;;;;;;8.88;2.85;;;;;;;-0.92;82.21;101926.53;5019933;28;20025;-23
2022/01/21 09:31:12;;;;;;;7.00;2.80;;;;;;;-0.87;81.88;101933.66;5021965;28;20706;-22
2022/01/21 09:33:38;;;;;;;6.90;2.58;;;;;;;-0.83;82.29;101920.97;5020866;28;20033;-22
2022/01/21 09:36:04;;;;;;;5.53;2.90;;;;;;;-0.77;82.76;101933.38;5017291;28;20639;-22
2022/01/21 09:38:29;;;;;;;8.48;2.97;;;;;;;-0.74;81.81;101930.09;5017364;28;20037;-22
2022/01/21 09:40:56;;;;;;;9.63;3.35;;;;;;;-0.69;82.46;101928.66;5022768;28;21098;-22
2022/01/21 09:43:22;;;;;;;6.43;2.88;;;;;;;-0.69;81.11;101934.75;5020691;28;20026;-22
2022/01/21 09:45:53;;;;;;;5.72;2.88;;;;;;;-0.65;81.59;101931.53;5024299;28;20020;-22
2022/01/21 09:48:26;;;;;;;5.00;3.35;;;;;;;-0.64;80.90;101937.56;5024576;28;20052;-22
2022/01/21 09:50:54;;;;;;;11.02;3.63;;;;;;;-0.59;81.79;101932.66;5018473;28;20033;-23
2022/01/21 09:53:30;;;;;;;6.47;3.30;;;;;;;-0.56;80.84;101935.44;5021489;28;20025;-25
2022/01/21 09:56:00;;;;;;;9.23;4.72;;;;;;;-0.53;80.94;101933.03;5022383;28;20499;-25
2022/01/21 09:58:27;;;;;;;6.40;4.13;;;;;;;-0.50;81.04;101930.56;5021449;28;20021;-25
2022/01/21 10:00:55;;;;;;;9.20;4.63;;;;;;;-0.45;80.74;101933.44;5022217;28;20037;-25
2022/01/21 10:03:22;;;;;;;8.68;4.30;;;;;;;-0.42;81.29;101929.34;5040070;28;20672;-25
2022/01/21 10:05:49;;;;;;;7.57;5.82;;;;;;;-0.38;81.25;101935.56;5024141;28;20079;-25
2022/01/21 10:08:15;;;;;;;5.97;4.22;;;;;;;-0.36;80.80;101933.06;5023247;28;20060;-25
2022/01/21 10:10:42;;;;;;;11.65;4.75;;;;;;;-0.29;80.74;101946.47;5023848;28;20513;-22
2022/01/21 10:13:08;;;;;;;8.57;4.05;;;;;;;-0.24;80.53;101944.13;5021362;28;20492;-22
2022/01/21 10:15:36;;;;;;;7.85;4.45;;;;;;;-0.19;80.66;101945.28;5025284;28;20509;-23
2022/01/21 10:18:13;;;;;;;8.50;4.07;;;;;;;-0.11;80.84;101942.25;5023887;28;20100;-22
2022/01/21 10:20:59;;;;;;;7.18;4.50;;;;;;;-0.05;80.51;101945.16;5021767;28;20503;-25
2022/01/21 10:23:27;;;;;;;6.20;4.35;;;;;;;-0.01;80.94;101941.91;5024119;28;20492;-25
2022/01/21 10:26:05;;;;;;;11.25;4.57;;;;;;;0.07;80.43;101934.56;5022603;28;20056;-22
2022/01/21 10:28:31;;;;;;;8.00;4.10;;;;;;;0.13;81.18;101924.50;5020818;28;20074;-25
2022/01/21 10:31:12;;;;;;;5.15;3.58;;;;;;;0.19;80.39;101955.06;5025272;28;20026;-25
2022/01/21 10:33:42;;;;;;;5.57;4.30;;;;;;;0.28;80.18;101934.81;5026271;28;20029;-22
2022/01/21 10:36:09;;;;;;;6.97;4.18;;;;;;;0.35;80.15;101942.13;5025814;28;20071;-22
2022/01/21 10:38:45;;;;;;;7.18;4.25;;;;;;;0.40;80.14;101931.97;5025600;28;20033;-25
2022/01/21 10:41:16;;;;;;;9.73;3.63;;;;;;;0.47;80.19;101930.63;5024583;28;20029;-22
2022/01/21 10:43:43;;;;;;;6.43;3.50;;;;;;;0.53;79.78;101943.91;5023709;28;20029;-22
2022/01/21 10:46:14;;;;;;;5.68;3.75;;;;;;;0.58;79.78;101947.66;5024755;28;20137;-25
2022/01/21 10:48:59;;;;;;;5.82;3.33;;;;;;;0.63;79.45;101953.97;5024941;28;20095;-25
2022/01/21 10:51:28;;;;;;;5.25;3.33;;;;;;;0.66;79.17;101961.03;5024764;28;20025;-22
2022/01/21 10:53:55;;;;;;;8.55;3.92;;;;;;;0.69;79.14;101961.19;5025927;28;20049;-22
2022/01/21 10:56:23;;;;;;;7.68;3.33;;;;;;;0.72;79.32;101963.06;5023473;28;20154;-22
2022/01/21 10:58:52;;;;;;;7.90;3.83;;;;;;;0.76;78.98;101965.00;5023952;28;20041;-22
2022/01/21 11:01:26;;;;;;;10.38;3.13;;;;;;;0.79;79.34;101975.56;5023869;28;20029;-22
2022/01/21 11:04:01;;;;;;;6.45;3.03;;;;;;;0.83;78.79;101977.50;5022112;28;20492;-22
2022/01/21 11:06:46;;;;;;;7.35;3.75;;;;;;;0.86;78.25;101969.88;5022401;28;20385;-22
2022/01/21 11:09:40;;;;;;;6.95;3.45;;;;;;;0.87;78.68;101974.22;5020960;28;20030;-22
2022/01/21 11:12:16;;;;;;;7.07;3.40;;;;;;;0.92;78.38;101983.97;5012744;28;20045;-22
2022/01/21 11:14:56;;;;;;;5.32;3.15;;;;;;;0.94;78.36;101979.75;5019123;28;20481;-22
2022/01/21 11:17:22;;;;;;;7.80;3.30;;;;;;;0.98;78.28;101973.91;5021693;28;20436;-22
2022/01/21 11:20:06;;;;;;;4.65;2.45;;;;;;;0.95;78.18;101978.94;5019964;28;20029;-22
2022/01/21 11:22:32;;;;;;;6.22;3.20;;;;;;;0.99;78.21;101988.66;5021045;28;20451;-22
2022/01/21 11:24:59;;;;;;;5.07;3.35;;;;;;;1.01;77.95;101976.66;5021061;28;20522;-22
2022/01/21 11:27:26;;;;;;;5.90;2.90;;;;;;;1.04;77.31;101978.53;5022199;28;20033;-22
2022/01/21 11:29:53;;;;;;;4.38;2.63;;;;;;;1.06;77.93;101972.59;5022162;28;20030;-22
2022/01/21 11:32:19;;;;;;;5.75;2.17;;;;;;;1.11;77.79;101978.94;5019257;28;20108;-22
2022/01/21 11:34:45;;;;;;;6.30;2.83;;;;;;;1.11;78.01;101980.63;5023959;28;20029;-22
2022/01/21 11:37:11;;;;;;;5.10;2.95;;;;;;;1.17;78.10;101987.84;5021656;28;20398;-22
2022/01/21 11:39:37;;;;;;;5.65;3.28;;;;;;;1.20;78.00;101982.81;5022319;28;20040;-22
2022/01/21 11:42:06;;;;;;;10.40;3.35;;;;;;;1.25;77.78;101991.72;5021719;28;20398;-22
2022/01/21 11:44:36;;;;;;;4.82;2.83;;;;;;;1.26;77.78;101972.69;5020060;28;20473;-22
2022/01/21 11:49:57;;;;;;;3.72;2.40;;;;;;;1.34;77.25;101989.59;4993832;28;21127;-22
2022/01/21 11:52:22;;;;;;;7.30;3.10;;;;;;;1.37;76.60;101987.13;5021064;28;20032;-23
2022/01/21 11:54:49;;;;;;;6.78;2.53;;;;;;;1.37;77.07;101981.94;5019848;28;20022;-23
2022/01/21 11:57:15;;;;;;;5.57;2.45;;;;;;;1.43;76.96;101990.88;5023232;28;20168;-23
2022/01/21 12:00:06;;;;;;;6.28;2.28;;;;;;;1.44;77.16;101984.84;5020548;28;20486;-23
2022/01/21 12:02:34;;;;;;;5.03;2.63;;;;;;;1.49;77.40;101980.75;5022059;28;20088;-23
2022/01/21 12:05:09;;;;;;;2.78;2.35;;;;;;;1.54;77.39;101987.09;5017331;28;21071;-23
2022/01/21 12:07:55;;;;;;;3.15;2.15;;;;;;;1.58;77.15;101995.94;5023498;28;20025;-23
2022/01/21 12:10:23;;;;;;;5.45;2.85;;;;;;;1.60;77.16;101991.72;5022581;28;20116;-23
2022/01/21 12:12:54;;;;;;;5.07;2.88;;;;;;;1.67;77.35;101988.59;5023851;28;20022;-23
2022/01/21 12:15:26;;;;;;;3.63;2.72;;;;;;;1.72;77.07;101981.91;5022072;28;20080;-23
2022/01/21 12:20:43;;;;;;;8.55;2.60;;;;;;;1.85;77.40;101987.69;5024188;28;20025;-23